Time;durP1;ratioP1;P1;durP2;ratioP2;P2;SDS_P1;SDS_P2;PMS_P1;PMS_P2;Temp;Humidity;BMP_temperature;BMP_pressure;BME280_temperature;BME280_humidity;BME280_pressure;Samples;Min_cycle;Max_cycle;Signal;HPM_P1;HPM_P2
2023/09/14 00:00:14;;;;;;;8.32;7.57;;;17.90;99.90;;;18.78;100.00;98274.47;10323616;28;20234;-82
2023/09/14 00:05:17;;;;;;;7.95;7.28;;;17.90;99.90;;;18.84;100.00;98272.06;10329890;28;20597;-82
2023/09/14 00:10:24;;;;;;;7.68;7.03;;;17.90;99.90;;;18.81;100.00;98282.31;10335421;28;20282;-81
2023/09/14 00:15:28;;;;;;;8.05;7.35;;;17.90;99.90;;;18.83;100.00;98272.03;10330540;28;20224;-80
2023/09/14 00:20:31;;;;;;;7.93;7.22;;;17.90;99.90;;;18.84;100.00;98272.06;10327280;28;20227;-82
2023/09/14 00:25:36;;;;;;;7.93;7.32;;;17.90;99.90;;;18.78;100.00;98268.41;10330715;28;20305;-80
2023/09/14 00:30:39;;;;;;;7.68;7.00;;;17.90;99.90;;;18.82;100.00;98273.72;10328228;28;20342;-82
2023/09/14 00:35:46;;;;;;;8.23;7.45;;;18.00;99.90;;;18.92;100.00;98276.63;10328093;28;20278;-81
2023/09/14 00:40:51;;;;;;;8.15;7.38;;;18.00;99.90;;;18.82;100.00;98275.44;10329438;28;20223;-82
2023/09/14 00:45:55;;;;;;;7.97;7.28;;;17.90;99.90;;;18.80;100.00;98274.50;10329930;28;20235;-81
2023/09/14 00:50:58;;;;;;;8.23;7.47;;;17.90;99.90;;;18.80;100.00;98280.56;10331141;28;20333;-82
2023/09/14 00:56:04;;;;;;;8.00;7.40;;;18.00;99.90;;;18.82;100.00;98289.25;10328370;28;20234;-83
2023/09/14 01:01:08;;;;;;;8.20;7.53;;;18.00;99.90;;;18.86;100.00;98278.19;10324786;28;20313;-81
2023/09/14 01:06:12;;;;;;;8.50;7.70;;;18.00;99.90;;;18.93;100.00;98286.13;10325675;28;20455;-82
2023/09/14 01:11:17;;;;;;;8.48;7.78;;;18.00;99.90;;;18.84;100.00;98291.91;10332673;28;20246;-82
2023/09/14 01:16:26;;;;;;;9.43;8.05;;;17.90;99.90;;;18.75;100.00;98292.50;10328424;28;20252;-83
2023/09/14 01:21:57;;;;;;;8.13;7.43;;;17.90;99.90;;;18.82;100.00;98289.25;10329754;28;20253;-82
2023/09/14 01:27:03;;;;;;;8.07;7.30;;;17.90;99.90;;;18.85;100.00;98294.53;10325628;28;20269;-81
2023/09/14 01:32:07;;;;;;;9.18;8.23;;;18.00;99.90;;;18.92;100.00;98297.34;10324473;28;20250;-82
2023/09/14 01:37:11;;;;;;;8.70;7.90;;;18.00;99.90;;;18.88;100.00;98298.94;10321626;28;21691;-80
2023/09/14 01:42:16;;;;;;;8.80;7.88;;;18.10;99.90;;;18.93;100.00;98301.69;10325525;28;20777;-81
2023/09/14 01:47:20;;;;;;;8.13;7.43;;;18.10;99.90;;;18.86;100.00;98296.31;10325098;28;20223;-79
2023/09/14 01:52:23;;;;;;;8.07;7.30;;;18.10;99.90;;;18.88;100.00;98294.63;10319011;28;20630;-83
2023/09/14 01:57:28;;;;;;;9.35;8.55;;;18.10;99.90;;;18.77;100.00;98303.78;10321609;28;20230;-82
2023/09/14 02:02:31;;;;;;;9.02;8.20;;;18.00;99.90;;;18.77;100.00;98300.28;10321396;28;20247;-82
2023/09/14 02:07:35;;;;;;;9.30;8.50;;;18.10;99.90;;;18.73;100.00;98304.47;10319976;28;20863;-81
2023/09/14 02:12:39;;;;;;;9.32;8.52;;;18.00;99.90;;;18.61;100.00;98299.78;10322651;28;20304;-82
2023/09/14 02:17:43;;;;;;;9.85;8.95;;;17.90;99.90;;;18.66;100.00;98302.53;10320463;28;20803;-82
2023/09/14 02:22:47;;;;;;;10.50;9.60;;;18.00;99.90;;;18.73;100.00;98301.88;10321262;28;20226;-81
2023/09/14 02:27:52;;;;;;;9.50;8.60;;;18.00;99.90;;;18.76;100.00;98293.38;10320635;28;20228;-82
2023/09/14 02:32:56;;;;;;;9.73;8.73;;;17.90;99.90;;;18.55;100.00;98298.72;10321256;28;20286;-80
2023/09/14 02:37:59;;;;;;;8.98;8.18;;;17.90;99.90;;;18.58;100.00;98296.22;10323315;28;20314;-80
2023/09/14 02:43:04;;;;;;;8.48;7.82;;;17.90;99.90;;;18.66;100.00;98302.53;10319295;28;20262;-82
2023/09/14 02:48:08;;;;;;;8.77;7.97;;;18.00;99.90;;;18.74;100.00;98306.25;10322232;28;20238;-81
2023/09/14 02:53:11;;;;;;;9.93;9.02;;;18.00;99.90;;;18.69;100.00;98310.41;10322308;28;20239;-80
2023/09/14 02:58:16;;;;;;;8.80;8.07;;;17.90;99.90;;;18.73;100.00;98301.88;10316737;28;20223;-81
2023/09/14 03:03:19;;;;;;;9.48;8.63;;;18.00;99.90;;;18.77;100.00;98316.75;10320054;28;20254;-82
2023/09/14 03:08:23;;;;;;;9.20;8.40;;;18.10;99.90;;;18.74;100.00;98316.63;10321724;28;20234;-82
2023/09/14 03:13:28;;;;;;;10.02;8.73;;;18.00;99.90;;;18.83;100.00;98322.13;10320867;28;20245;-81
2023/09/14 03:18:31;;;;;;;9.90;8.93;;;18.00;99.90;;;18.93;100.00;98322.41;10319172;28;20238;-82
2023/09/14 03:23:34;;;;;;;9.15;8.20;;;18.10;99.90;;;18.86;100.00;98317.03;10318423;28;20631;-81
2023/09/14 03:28:39;;;;;;;9.48;8.40;;;18.00;99.90;;;18.78;100.00;98323.66;10318798;28;20227;-81
2023/09/14 03:33:44;;;;;;;10.25;8.73;;;17.90;99.90;;;18.79;100.00;98314.19;10321172;28;20290;-81
2023/09/14 03:38:47;;;;;;;9.85;8.85;;;17.90;99.90;;;18.78;100.00;98323.66;10323254;28;20278;-80
2023/09/14 03:43:52;;;;;;;10.18;9.13;;;17.90;99.90;;;18.84;100.00;98333.34;10323968;28;20226;-83
2023/09/14 03:48:56;;;;;;;10.23;9.23;;;17.90;99.90;;;18.81;100.00;98343.63;10327003;28;20255;-82
2023/09/14 03:53:59;;;;;;;9.00;8.30;;;17.90;99.90;;;18.63;100.00;98343.88;10325719;28;20234;-81
2023/09/14 03:59:04;;;;;;;9.50;8.70;;;17.80;99.90;;;18.58;100.00;98335.06;10323895;28;20278;-82
2023/09/14 04:04:10;;;;;;;9.93;9.00;;;17.80;99.90;;;18.63;100.00;98336.97;10321582;28;20286;-83
2023/09/14 04:09:14;;;;;;;9.73;8.93;;;17.80;99.90;;;18.68;100.00;98338.00;10324534;28;20219;-81
2023/09/14 04:14:19;;;;;;;9.35;8.52;;;17.80;99.90;;;18.68;100.00;98337.09;10324231;28;20223;-82
2023/09/14 04:19:22;;;;;;;9.20;8.40;;;17.70;99.90;;;18.61;100.00;98341.22;10322286;28;20285;-83
2023/09/14 04:24:25;;;;;;;10.48;9.48;;;17.70;99.90;;;18.58;100.00;98341.13;10326245;28;20987;-81
2023/09/14 04:29:31;;;;;;;9.90;8.98;;;17.70;99.90;;;18.61;100.00;98350.69;10311895;28;20322;-81
2023/09/14 04:34:34;;;;;;;10.68;9.60;;;17.70;99.90;;;18.62;100.00;98357.63;10312251;28;20615;-81
2023/09/14 04:39:38;;;;;;;9.77;8.93;;;17.70;99.90;;;18.56;100.00;98360.00;10312544;28;20398;-82
2023/09/14 04:44:49;;;;;;;10.20;9.27;;;17.70;99.90;;;18.66;100.00;98362.09;10324805;28;20233;-81
2023/09/14 04:49:53;;;;;;;8.98;8.18;;;17.70;99.90;;;18.65;100.00;98368.09;10313746;28;20234;-83
2023/09/14 04:54:56;;;;;;;9.45;8.65;;;17.70;99.90;;;18.64;100.00;98379.28;10323942;28;20521;-82
2023/09/14 05:00:01;;;;;;;10.10;9.23;;;17.70;99.90;;;18.58;100.00;98371.31;10339306;28;20246;-82
2023/09/14 05:05:06;;;;;;;10.10;9.20;;;17.70;99.90;;;18.59;100.00;98383.41;10336826;28;20222;-81
2023/09/14 05:10:10;;;;;;;10.52;9.05;;;17.60;99.90;;;18.54;100.00;98370.34;10348459;28;20277;-82
2023/09/14 05:15:15;;;;;;;10.95;9.95;;;17.60;99.90;;;18.46;100.00;98382.13;10329688;28;21630;-83
2023/09/14 05:20:18;;;;;;;11.25;10.20;;;17.50;99.90;;;18.36;100.00;98370.56;10323912;28;20237;-81
2023/09/14 05:25:25;;;;;;;10.73;9.73;;;17.50;99.90;;;18.39;100.00;98380.16;10318512;28;20270;-81
2023/09/14 05:30:32;;;;;;;11.18;10.10;;;17.50;99.90;;;18.36;100.00;98380.91;10317287;28;20235;-80
2023/09/14 05:35:35;;;;;;;10.70;9.80;;;17.50;99.90;;;18.25;100.00;98382.25;10312074;28;20281;-82
2023/09/14 05:40:39;;;;;;;11.60;10.32;;;17.40;99.90;;;18.30;100.00;98385.88;10331374;28;20254;-80
2023/09/14 05:45:43;;;;;;;10.20;9.30;;;17.40;99.90;;;18.29;100.00;98389.31;10315638;28;20676;-82
2023/09/14 05:50:47;;;;;;;10.35;9.45;;;17.40;99.90;;;18.26;100.00;98396.97;10313386;28;20239;-81
2023/09/14 05:55:50;;;;;;;10.77;9.73;;;17.40;99.90;;;18.27;100.00;98401.31;10311100;28;20255;-83
2023/09/14 06:00:56;;;;;;;10.73;9.63;;;17.40;99.90;;;18.34;100.00;98403.31;10321332;28;20247;-80
2023/09/14 06:05:59;;;;;;;10.50;9.40;;;17.40;99.90;;;18.44;100.00;98397.59;10323080;28;20637;-78
2023/09/14 06:11:03;;;;;;;9.82;9.00;;;17.60;99.90;;;18.59;100.00;98398.94;10321934;28;20646;-81
2023/09/14 06:16:08;;;;;;;9.63;8.73;;;17.70;99.90;;;18.69;100.00;98401.03;10332605;28;20742;-79
2023/09/14 06:21:11;;;;;;;9.50;8.70;;;17.90;99.90;;;18.79;98.97;98408.31;10323319;28;20233;-79
2023/09/14 06:26:14;;;;;;;9.45;8.57;;;18.00;99.90;;;18.89;97.59;98412.09;10319450;28;20235;-80
2023/09/14 06:31:19;;;;;;;10.38;9.40;;;18.00;99.90;;;18.81;96.70;98411.84;10326322;28;20246;-82
2023/09/14 06:36:23;;;;;;;8.60;7.80;;;17.90;99.90;;;18.85;96.45;98405.91;10314441;28;20671;-81
2023/09/14 06:41:26;;;;;;;8.95;8.15;;;17.80;99.90;;;18.87;96.72;98409.44;10307695;28;20255;-81
2023/09/14 06:46:31;;;;;;;8.98;7.97;;;17.90;99.90;;;18.94;97.13;98407.06;10314277;28;20285;-82
2023/09/14 06:51:34;;;;;;;10.27;9.38;;;18.00;99.90;;;19.13;94.71;98412.00;10312713;28;20223;-81
2023/09/14 06:56:38;;;;;;;9.05;8.18;;;18.10;99.90;;;19.14;94.96;98416.34;10314623;28;20227;-82
2023/09/14 07:01:42;;;;;;;7.88;6.97;;;18.20;99.90;;;19.30;93.99;98410.81;10317296;28;20258;-82
2023/09/14 07:06:47;;;;;;;8.15;7.35;;;18.30;99.90;;;19.34;93.89;98417.88;10306436;28;20250;-82
2023/09/14 07:11:50;;;;;;;7.53;6.82;;;18.40;99.90;;;19.59;91.21;98405.66;10311367;28;20219;-80
2023/09/14 07:16:55;;;;;;;8.50;7.70;;;18.50;99.90;;;19.53;90.83;98415.84;10316465;28;20223;-81
2023/09/14 07:21:58;;;;;;;7.70;7.00;;;18.40;99.90;;;19.56;91.49;98418.53;10325098;28;20251;-82
2023/09/14 07:27:01;;;;;;;8.27;7.47;;;18.50;99.90;;;19.72;89.90;98423.41;10327412;28;20876;-81
2023/09/14 07:32:07;;;;;;;8.48;7.68;;;18.70;99.90;;;19.57;91.71;98417.69;10320684;28;20247;-82
2023/09/14 07:37:10;;;;;;;7.75;6.93;;;18.70;99.90;;;19.70;90.89;98425.06;10321794;28;20239;-79
2023/09/14 07:42:14;;;;;;;8.30;7.55;;;18.70;99.90;;;20.09;87.53;98434.84;10317416;28;20235;-82
2023/09/14 07:47:18;;;;;;;7.25;6.70;;;19.10;99.90;;;20.02;87.25;98440.69;10319161;28;20223;-81
2023/09/14 07:52:23;;;;;;;7.03;6.53;;;19.10;99.90;;;19.92;87.71;98443.88;10319858;28;20241;-83
2023/09/14 07:57:26;;;;;;;7.72;7.07;;;18.90;99.90;;;20.06;87.56;98445.16;10316743;28;20238;-82
2023/09/14 08:02:31;;;;;;;6.65;6.15;;;19.00;99.90;;;20.06;87.79;98455.53;10324567;28;20946;-81
2023/09/14 08:07:35;;;;;;;8.13;6.80;;;19.20;99.90;;;20.12;86.52;98450.53;10326169;28;20691;-80
2023/09/14 08:12:38;;;;;;;7.28;6.60;;;19.20;99.90;;;20.13;87.27;98449.66;10319728;28;20215;-82
2023/09/14 08:17:44;;;;;;;7.32;6.72;;;19.20;99.90;;;20.30;84.98;98454.47;10315951;28;20219;-82
2023/09/14 08:22:47;;;;;;;7.50;6.80;;;19.40;99.90;;;20.68;82.72;98464.22;10324187;28;20789;-83
2023/09/14 08:27:51;;;;;;;6.50;6.00;;;19.80;99.90;;;20.81;79.54;98461.97;10322859;28;20900;-81
2023/09/14 08:32:56;;;;;;;8.00;7.30;;;19.90;99.90;;;20.92;79.39;98470.91;10317555;28;20219;-78
2023/09/14 08:37:59;;;;;;;7.25;6.65;;;19.90;99.90;;;21.09;76.73;98477.44;10325853;28;20233;-79
2023/09/14 08:43:04;;;;;;;7.03;6.43;;;20.10;99.90;;;21.07;77.08;98471.28;10315829;28;20262;-80
2023/09/14 08:48:11;;;;;;;7.72;7.00;;;20.20;99.90;;;21.07;75.92;98479.09;10317846;28;20266;-80
2023/09/14 08:53:16;;;;;;;8.68;6.80;;;20.10;99.90;;;21.05;75.84;98479.91;10322818;28;20591;-81
2023/09/14 08:58:20;;;;;;;7.88;7.18;;;20.20;99.90;;;21.09;76.27;98482.63;10318024;28;20255;-79
2023/09/14 09:03:27;;;;;;;7.47;6.78;;;20.20;99.90;;;21.25;75.97;98480.41;10320347;28;21545;-79
2023/09/14 09:08:32;;;;;;;6.90;6.40;;;20.20;99.90;;;21.57;73.64;98471.66;10314542;28;20235;-80
2023/09/14 09:13:36;;;;;;;7.57;6.88;;;20.50;99.90;;;21.81;71.50;98465.28;10317176;28;20219;-80
2023/09/14 09:19:03;;;;;;;7.32;6.63;;;20.70;99.90;;;21.89;71.16;98468.03;10325337;28;20289;-81
2023/09/14 09:24:14;;;;;;;7.32;6.68;;;20.70;99.90;;;22.33;68.59;98460.34;10325330;28;20227;-81
2023/09/14 09:29:22;;;;;;;6.80;6.07;;;21.50;99.90;;;22.71;66.69;98463.66;10320163;28;20469;-81
2023/09/14 09:34:33;;;;;;;6.95;5.95;;;22.20;99.90;;;22.73;65.83;98459.38;10320673;28;20235;-81
2023/09/14 09:39:37;;;;;;;6.18;5.68;;;21.90;99.90;;;23.03;64.13;98458.19;10313633;28;20237;-81
2023/09/14 09:44:40;;;;;;;6.00;5.47;;;22.30;99.90;;;23.24;62.53;98450.72;10316053;28;20824;-79
2023/09/14 09:49:45;;;;;;;6.47;5.88;;;22.90;99.90;;;23.28;60.66;98447.31;10315707;28;20258;-80
2023/09/14 09:54:49;;;;;;;6.00;5.40;;;22.90;99.90;;;23.54;60.80;98449.44;10334306;28;20242;-81
2023/09/14 09:59:55;;;;;;;5.20;4.70;;;22.90;99.90;;;23.59;60.42;98443.44;10317217;28;20261;-80
2023/09/14 10:05:01;;;;;;;5.43;4.93;;;22.90;99.90;;;23.80;59.04;98432.44;10316579;28;20231;-82
2023/09/14 10:10:05;;;;;;;4.93;4.53;;;23.40;99.90;;;24.06;58.01;98442.38;10318911;28;20227;-82
2023/09/14 10:15:10;;;;;;;5.13;4.72;;;23.70;99.90;;;24.21;57.93;98442.56;10323659;28;20227;-83
2023/09/14 10:20:16;;;;;;;5.85;5.35;;;23.70;99.90;;;24.40;56.99;98434.94;10318657;28;20257;-81
2023/09/14 10:25:21;;;;;;;5.07;4.68;;;23.80;99.90;;;24.44;56.63;98442.00;10315396;28;20322;-83
2023/09/14 10:30:25;;;;;;;5.65;4.82;;;23.60;99.90;;;24.48;56.49;98435.94;10317040;28;20556;-83
2023/09/14 10:35:31;;;;;;;5.60;5.20;;;24.00;99.90;;;24.49;56.19;98440.28;10328244;28;20569;-81
2023/09/14 10:40:36;;;;;;;5.22;4.75;;;24.10;99.90;;;24.25;56.79;98425.19;10323635;28;20716;-82
2023/09/14 10:45:43;;;;;;;7.97;7.35;;;23.80;99.90;;;24.09;56.29;98431.06;10337852;28;20235;-81
2023/09/14 10:50:50;;;;;;;5.10;4.70;;;23.50;99.90;;;24.07;57.53;98415.41;10349321;28;20234;-81
2023/09/14 10:55:53;;;;;;;5.55;5.05;;;23.60;99.90;;;24.20;55.96;98422.50;10351318;28;20246;-81
2023/09/14 11:00:58;;;;;;;4.65;4.25;;;23.80;99.90;;;24.21;56.71;98418.19;10354550;28;20245;-81
2023/09/14 11:06:45;;;;;;;4.70;4.30;;;23.70;99.90;;;24.40;55.68;98411.41;10346877;28;20261;-81
2023/09/14 11:11:51;;;;;;;4.60;4.20;;;24.00;99.90;;;24.32;56.48;98405.22;10342784;28;21855;-81
2023/09/14 11:16:58;;;;;;;4.88;4.55;;;23.80;99.90;;;24.44;55.44;98393.22;10344790;28;20291;-83
2023/09/14 11:22:16;;;;;;;4.10;3.78;;;23.80;99.90;;;24.48;54.83;98384.53;10336231;28;20227;-83
2023/09/14 11:27:26;;;;;;;4.38;3.97;;;24.00;99.90;;;24.45;55.17;98386.25;10333049;28;20239;-80
2023/09/14 11:32:33;;;;;;;4.65;4.25;;;23.90;99.90;;;24.56;55.18;98379.38;10339209;28;20215;-81
2023/09/14 11:37:41;;;;;;;4.65;4.25;;;23.90;99.90;;;24.55;55.41;98375.00;10328438;28;21010;-80
2023/09/14 11:43:25;;;;;;;4.43;4.10;;;23.80;99.90;;;24.33;56.48;98379.13;10336157;28;20253;-81
2023/09/14 11:48:48;;;;;;;4.55;4.25;;;23.70;99.90;;;24.23;56.48;98367.69;10190229;29;20242;-81
2023/09/14 11:53:59;;;;;;;4.35;3.95;;;23.60;99.90;;;24.09;55.71;98369.25;10328815;28;20252;-81
2023/09/14 11:59:03;;;;;;;4.18;3.67;;;23.30;99.90;;;24.20;54.54;98362.41;10346970;28;20230;-81
2023/09/14 12:04:07;;;;;;;4.10;3.80;;;23.50;99.90;;;24.13;55.94;98364.97;10336358;28;20222;-82
2023/09/14 12:09:11;;;;;;;4.00;3.80;;;23.40;99.90;;;24.26;54.54;98365.09;10333516;28;20235;-81
2023/09/14 12:14:39;;;;;;;3.78;3.40;;;23.50;99.90;;;24.19;55.72;98347.63;10322709;28;20317;-82
2023/09/14 12:19:46;;;;;;;3.50;3.25;;;23.50;99.90;;;24.18;55.30;98344.97;10332536;28;20222;-81
2023/09/14 12:24:52;;;;;;;4.40;4.10;;;23.60;99.90;;;24.34;55.16;98339.06;10324340;28;20230;-82
2023/09/14 12:29:56;;;;;;;4.28;3.97;;;23.60;99.90;;;24.46;54.43;98340.94;10323633;28;20241;-82
2023/09/14 12:35:00;;;;;;;3.97;3.67;;;23.80;99.90;;;24.76;52.70;98329.91;10320170;28;20223;-81
2023/09/14 12:40:10;;;;;;;4.20;3.80;;;24.20;98.90;;;24.67;53.33;98330.69;10323204;28;20233;-83
2023/09/14 12:45:16;;;;;;;3.10;2.90;;;24.00;99.40;;;24.82;51.65;98323.84;10325303;28;20990;-84
2023/09/14 12:50:20;;;;;;;3.78;3.45;;;24.20;98.50;;;24.78;52.54;98320.34;10338559;28;20260;-83
2023/09/14 12:55:28;;;;;;;3.35;3.10;;;23.90;98.70;;;24.72;52.69;98318.53;10338441;28;20230;-83
2023/09/14 13:00:33;;;;;;;3.22;3.00;;;24.00;98.70;;;24.84;51.57;98311.63;10339503;28;20230;-82
2023/09/14 13:05:37;;;;;;;3.50;3.20;;;24.20;97.60;;;24.90;51.54;98306.47;10338216;28;20244;-80
2023/09/14 13:10:43;;;;;;;3.78;3.30;;;24.20;97.60;;;25.15;50.32;98297.94;10328245;28;20223;-79
2023/09/14 13:15:46;;;;;;;3.40;3.20;;;24.40;96.90;;;24.99;50.58;98284.72;10323033;28;20308;-81
2023/09/14 13:20:51;;;;;;;3.15;2.95;;;24.10;97.30;;;24.94;49.27;98285.56;10322508;28;20220;-78
2023/09/14 13:25:56;;;;;;;3.25;2.95;;;24.00;96.60;;;24.99;49.62;98289.97;10317887;28;20321;-78
2023/09/14 13:30:59;;;;;;;2.67;2.47;;;24.20;96.50;;;25.16;48.18;98278.75;10320083;28;20227;-78
2023/09/14 13:36:03;;;;;;;2.90;2.70;;;24.30;95.60;;;25.22;48.10;98271.81;10329570;28;20246;-79
2023/09/14 13:41:08;;;;;;;2.70;2.50;;;24.40;95.30;;;25.19;48.65;98272.66;10332069;28;20460;-83
2023/09/14 13:46:12;;;;;;;2.83;2.55;;;24.30;95.40;;;25.01;47.59;98265.56;10315490;28;20241;-80
2023/09/14 13:51:15;;;;;;;2.28;2.17;;;24.20;94.50;;;25.16;47.08;98264.81;10314773;28;20238;-80
2023/09/14 13:56:20;;;;;;;2.58;2.35;;;24.30;94.20;;;25.24;46.64;98270.97;10307489;28;20258;-78
2023/09/14 14:01:24;;;;;;;2.38;2.17;;;24.40;93.80;;;25.28;46.51;98257.00;10305952;28;20302;-77
2023/09/14 14:06:29;;;;;;;2.67;2.47;;;24.40;93.80;;;24.78;46.75;98259.28;10303462;28;20230;-78
2023/09/14 14:11:34;;;;;;;3.25;2.55;;;24.00;93.70;;;24.65;45.35;98248.75;10323292;28;20233;-77
2023/09/14 14:16:37;;;;;;;2.58;2.38;;;24.00;93.00;;;24.52;45.94;98241.66;10306333;28;20231;-79
2023/09/14 14:21:41;;;;;;;3.20;2.30;;;23.90;92.80;;;24.38;45.80;98240.66;10321458;28;20995;-80
2023/09/14 14:26:45;;;;;;;2.42;2.22;;;23.80;92.70;;;24.26;45.57;98234.44;10327497;28;20281;-79
2023/09/14 14:31:49;;;;;;;2.35;2.15;;;23.70;92.00;;;24.46;46.99;98239.00;10309435;28;20255;-79
2023/09/14 14:36:52;;;;;;;2.15;2.03;;;23.80;93.40;;;24.70;46.32;98244.44;10292760;28;20231;-79
2023/09/14 14:41:58;;;;;;;1.90;1.80;;;23.90;93.10;;;24.75;44.85;98244.44;10299446;28;21168;-79
2023/09/14 14:47:01;;;;;;;2.47;1.80;;;23.90;91.40;;;24.88;44.76;98235.81;10305460;28;20234;-79
2023/09/14 14:52:05;;;;;;;2.40;2.22;;;24.10;92.50;;;24.77;46.60;98227.03;10308656;28;20325;-80
2023/09/14 14:57:10;;;;;;;2.55;2.35;;;23.90;93.20;;;24.76;47.06;98234.88;10306636;28;20235;-77
2023/09/14 15:02:13;;;;;;;2.88;2.40;;;24.00;93.30;;;24.51;46.35;98239.94;10306897;28;20231;-79
2023/09/14 15:07:16;;;;;;;2.50;2.30;;;23.80;93.00;;;24.54;46.94;98237.34;10305725;28;20349;-78
2023/09/14 15:12:21;;;;;;;2.28;2.08;;;23.70;93.40;;;24.32;46.58;98227.53;10301133;28;21178;-81
2023/09/14 15:17:24;;;;;;;2.97;2.30;;;23.50;92.90;;;24.22;45.54;98237.91;10315072;28;20651;-78
2023/09/14 15:22:28;;;;;;;2.40;2.20;;;23.40;92.50;;;24.08;46.16;98228.22;10318825;28;20238;-78
2023/09/14 15:27:32;;;;;;;2.10;2.00;;;23.40;92.60;;;23.94;46.70;98230.69;10313113;28;20930;-80
2023/09/14 15:32:36;;;;;;;2.70;2.42;;;23.20;92.70;;;23.93;46.75;98218.50;10320863;28;20254;-79
2023/09/14 15:37:39;;;;;;;2.20;2.00;;;23.10;93.00;;;23.79;46.98;98232.28;10338860;28;20249;-79
2023/09/14 15:42:44;;;;;;;2.40;2.20;;;23.10;92.90;;;23.86;47.38;98224.50;10337487;28;20282;-80
2023/09/14 15:47:47;;;;;;;2.45;2.20;;;23.10;93.50;;;23.66;48.19;98235.56;10342035;28;20326;-81
2023/09/14 15:52:51;;;;;;;3.75;2.35;;;22.90;94.00;;;23.67;49.77;98237.34;10334085;28;20250;-79
2023/09/14 15:57:55;;;;;;;2.97;2.70;;;22.90;95.20;;;23.46;50.36;98247.50;10333730;28;20243;-81
2023/09/14 16:02:59;;;;;;;3.10;2.60;;;22.70;95.60;;;23.25;51.17;98241.19;10338972;28;20223;-79
2023/09/14 16:08:07;;;;;;;3.17;2.88;;;22.50;96.00;;;23.03;52.42;98240.00;10342543;28;20333;-80
2023/09/14 16:13:12;;;;;;;2.88;2.67;;;22.40;96.70;;;22.98;52.82;98248.63;10337427;28;20226;-81
2023/09/14 16:18:15;;;;;;;3.20;2.88;;;22.30;97.10;;;22.86;53.37;98247.59;10331125;28;20235;-79
2023/09/14 16:23:18;;;;;;;3.28;2.80;;;22.10;97.60;;;22.67;54.19;98248.16;10329562;28;20235;-79
2023/09/14 16:28:23;;;;;;;3.60;3.30;;;22.00;98.20;;;22.55;55.01;98248.84;10330088;28;20265;-78
2023/09/14 16:33:27;;;;;;;3.70;3.40;;;21.90;98.70;;;22.52;55.36;98258.31;10333448;28;20231;-77
2023/09/14 16:38:30;;;;;;;3.50;3.20;;;21.80;99.10;;;22.29;56.41;98250.13;10319305;28;20608;-79
2023/09/14 16:43:34;;;;;;;3.65;3.35;;;21.60;99.70;;;22.21;57.54;98253.50;10326954;28;20261;-79
2023/09/14 16:48:39;;;;;;;4.28;3.20;;;21.50;99.90;;;22.06;58.54;98250.56;10325578;28;20234;-80
2023/09/14 16:53:42;;;;;;;4.03;3.22;;;21.40;99.90;;;22.03;58.62;98259.22;10313896;28;21787;-80
2023/09/14 16:58:47;;;;;;;3.58;3.28;;;21.30;99.90;;;22.02;58.20;98262.66;10313808;28;20719;-80
2023/09/14 17:03:52;;;;;;;4.78;3.28;;;21.20;99.90;;;21.77;58.75;98261.31;10321300;28;20273;-81
2023/09/14 17:08:57;;;;;;;3.72;3.42;;;21.00;99.90;;;21.63;59.11;98269.72;10318499;28;21051;-82
2023/09/14 17:14:03;;;;;;;3.72;3.30;;;20.90;99.90;;;21.56;59.34;98266.13;10309544;28;20226;-79
2023/09/14 17:19:07;;;;;;;3.63;3.33;;;20.80;99.90;;;21.41;59.80;98265.81;10306314;28;20242;-81
2023/09/14 17:24:11;;;;;;;3.67;3.38;;;20.60;99.90;;;21.35;61.35;98272.59;10306568;28;20238;-79
2023/09/14 17:29:17;;;;;;;3.70;3.42;;;20.50;99.90;;;21.21;62.81;98274.03;10309159;28;20323;-81
2023/09/14 17:34:20;;;;;;;3.80;3.50;;;20.30;99.90;;;21.05;63.55;98270.22;10302921;28;20321;-80
2023/09/14 17:39:24;;;;;;;3.90;3.50;;;20.20;99.90;;;20.91;64.22;98269.03;10308226;28;20274;-80
2023/09/14 17:44:28;;;;;;;4.38;3.22;;;20.00;99.90;;;20.68;65.78;98266.75;10306999;28;20282;-82
2023/09/14 17:49:31;;;;;;;3.47;3.25;;;19.70;99.90;;;20.55;66.20;98269.94;10304421;28;20246;-82
2023/09/14 17:54:35;;;;;;;3.42;3.13;;;19.60;99.90;;;20.29;67.02;98273.53;10325316;28;20277;-82
2023/09/14 17:59:40;;;;;;;4.57;3.53;;;19.40;99.90;;;20.10;68.96;98291.25;10312976;28;20970;-80
2023/09/14 18:04:44;;;;;;;4.18;3.75;;;19.20;99.90;;;19.98;70.17;98286.63;10299717;28;20234;-80
2023/09/14 18:09:48;;;;;;;4.22;3.83;;;19.10;99.90;;;19.89;71.86;98301.06;10312143;28;20235;-79
2023/09/14 18:14:53;;;;;;;4.10;3.70;;;18.90;99.90;;;19.66;73.56;98301.31;10300239;28;20227;-79
2023/09/14 18:19:56;;;;;;;4.35;3.95;;;18.70;99.90;;;19.64;74.33;98297.75;10307523;28;20231;-77
2023/09/14 18:25:02;;;;;;;5.47;4.10;;;18.60;99.90;;;19.53;76.08;98312.13;10309258;28;20230;-80
2023/09/14 18:30:09;;;;;;;4.30;3.75;;;18.50;99.90;;;19.11;76.01;98312.59;10308853;28;20247;-78
2023/09/14 18:35:13;;;;;;;6.13;4.00;;;18.20;99.90;;;19.11;76.26;98310.00;10319547;28;20726;-81
2023/09/14 18:40:16;;;;;;;3.72;3.42;;;18.20;99.90;;;18.96;76.53;98314.72;10322843;28;20230;-79
2023/09/14 18:45:21;;;;;;;4.07;3.67;;;18.00;99.90;;;18.74;77.15;98320.91;10326780;28;20262;-79
2023/09/14 18:50:24;;;;;;;4.28;3.97;;;17.80;99.90;;;18.55;78.11;98325.47;10321620;28;20322;-79
2023/09/14 18:55:28;;;;;;;4.40;4.10;;;17.70;99.90;;;18.55;78.93;98322.03;10327083;28;20227;-79
2023/09/14 19:00:35;;;;;;;3.92;3.55;;;17.60;99.90;;;18.48;78.60;98320.03;10322322;28;20238;-81
2023/09/14 19:05:38;;;;;;;4.47;4.07;;;17.50;99.90;;;18.15;79.13;98323.25;10311013;28;20241;-81
2023/09/14 19:10:42;;;;;;;4.40;4.10;;;17.30;99.90;;;18.19;79.15;98330.28;10320373;28;20231;-80
2023/09/14 19:15:46;;;;;;;4.20;3.90;;;17.30;99.90;;;18.11;79.56;98332.59;10335773;28;20285;-83
2023/09/14 19:20:50;;;;;;;4.13;3.72;;;17.20;99.90;;;17.96;80.00;98338.13;10340627;28;20306;-80
2023/09/14 19:25:54;;;;;;;4.15;3.83;;;17.00;99.90;;;17.74;81.18;98340.72;10317023;28;20668;-80
2023/09/14 19:30:59;;;;;;;4.10;3.80;;;16.80;99.90;;;17.72;82.58;98337.22;10313572;28;20580;-80
2023/09/14 19:36:03;;;;;;;4.45;4.05;;;16.80;99.90;;;17.45;83.69;98335.34;10318585;28;20246;-78
2023/09/14 19:41:06;;;;;;;4.50;4.10;;;16.60;99.90;;;17.47;82.55;98336.28;10315259;28;20231;-78
2023/09/14 19:46:11;;;;;;;4.40;3.90;;;16.50;99.90;;;17.30;82.72;98327.03;10312790;28;20333;-79
2023/09/14 19:51:15;;;;;;;4.75;4.22;;;16.40;99.90;;;17.21;82.68;98337.88;10313856;28;20231;-80
2023/09/14 19:56:21;;;;;;;4.20;3.90;;;16.30;99.90;;;17.16;82.62;98338.53;10315973;28;20230;-80
2023/09/14 20:01:28;;;;;;;4.28;3.97;;;16.30;99.90;;;17.25;83.00;98328.53;10336195;28;21508;-81
2023/09/14 20:06:31;;;;;;;4.68;4.15;;;16.30;99.90;;;16.99;84.07;98336.16;10336256;28;20227;-78
2023/09/14 20:11:35;;;;;;;4.45;4.05;;;16.10;99.90;;;16.75;85.32;98330.88;10345358;28;20222;-80
2023/09/14 20:16:39;;;;;;;4.53;4.13;;;15.90;99.90;;;16.53;86.67;98328.25;10328200;28;20230;-80
2023/09/14 20:21:43;;;;;;;4.65;4.28;;;15.80;99.90;;;16.53;87.23;98326.53;10316291;28;20223;-80
2023/09/14 20:26:46;;;;;;;4.85;4.55;;;15.80;99.90;;;16.43;87.22;98321.84;10317276;28;20222;-78
2023/09/14 20:31:51;;;;;;;5.00;4.60;;;15.60;99.90;;;16.41;87.01;98319.16;10321234;28;20286;-77
2023/09/14 20:36:54;;;;;;;4.45;4.05;;;15.60;99.90;;;16.32;87.33;98323.97;10317843;28;20222;-80
2023/09/14 20:41:58;;;;;;;4.68;4.28;;;15.50;99.90;;;16.35;86.45;98329.25;10317574;28;20598;-79
2023/09/14 20:47:03;;;;;;;5.30;4.90;;;15.40;99.90;;;16.14;86.91;98318.91;10319912;28;20779;-81
2023/09/14 20:52:07;;;;;;;4.95;4.50;;;15.30;99.90;;;16.08;87.38;98322.91;10321931;28;20227;-80
2023/09/14 20:57:10;;;;;;;5.00;4.60;;;15.20;99.90;;;16.05;88.25;98313.34;10314097;28;20301;-78
2023/09/14 21:02:14;;;;;;;5.30;4.88;;;15.20;99.90;;;16.14;88.58;98307.72;10333156;28;20253;-79